Indianapolis, Indiana
Traffic Map
Current Weather Conditions
Indianapolis, Indiana
Few Clouds
Few Clouds
14°
Feels Like: 14°
Wind Chill: 14° Ceiling: Unl
Heat Index: 14° Visibility: 10mi
Dew Point: -2° Wind: 6mph
Humidity: 33% Direction: 50° (NE)
Pressure: 30.06in Gusts: 0mph
Raw Report DataKIND 232254Z 05005KT 10SM FEW250 14/M02 A3006 RMK AO2 SLP181 T01391022
Traffic Incident Summary
Active as of:
Severity:
Category:
InformationThere was an issue retrieving the traffic information for this location. Please try a different location or try again shortly.
Advertisements
At Last! Intellicast now available for iPhone and Android